sensor_id;sensor_type;location;lat;lon;timestamp;P1;durP1;ratioP1;P2;durP2;ratioP2
37937;SDS011;23763;48.130;11.602;2023-04-24T00:01:51;2.88;;;1.10;;
37937;SDS011;23763;48.130;11.602;2023-04-24T00:04:17;0.80;;;0.80;;
37937;SDS011;23763;48.130;11.602;2023-04-24T00:06:43;2.58;;;1.10;;
37937;SDS011;23763;48.130;11.602;2023-04-24T00:09:09;1.38;;;1.20;;
37937;SDS011;23763;48.130;11.602;2023-04-24T00:11:35;1.48;;;0.65;;
37937;SDS011;23763;48.130;11.602;2023-04-24T00:14:01;4.47;;;1.13;;
37937;SDS011;23763;48.130;11.602;2023-04-24T00:16:27;1.85;;;1.02;;
37937;SDS011;23763;48.130;11.602;2023-04-24T00:18:53;1.10;;;1.00;;
37937;SDS011;23763;48.130;11.602;2023-04-24T00:21:19;0.90;;;0.82;;
37937;SDS011;23763;48.130;11.602;2023-04-24T00:23:45;1.48;;;0.90;;
37937;SDS011;23763;48.130;11.602;2023-04-24T00:26:11;0.93;;;0.90;;
37937;SDS011;23763;48.130;11.602;2023-04-24T00:28:36;1.33;;;1.00;;
37937;SDS011;23763;48.130;11.602;2023-04-24T00:31:02;0.73;;;0.70;;
37937;SDS011;23763;48.130;11.602;2023-04-24T00:33:28;2.40;;;0.98;;
37937;SDS011;23763;48.130;11.602;2023-04-24T00:35:53;0.90;;;0.90;;
37937;SDS011;23763;48.130;11.602;2023-04-24T00:38:19;1.10;;;0.80;;
37937;SDS011;23763;48.130;11.602;2023-04-24T00:40:45;0.50;;;0.50;;
37937;SDS011;23763;48.130;11.602;2023-04-24T00:43:11;1.10;;;0.70;;
37937;SDS011;23763;48.130;11.602;2023-04-24T00:45:37;1.40;;;0.70;;
37937;SDS011;23763;48.130;11.602;2023-04-24T00:48:02;1.38;;;0.73;;
37937;SDS011;23763;48.130;11.602;2023-04-24T00:50:29;1.15;;;0.70;;
37937;SDS011;23763;48.130;11.602;2023-04-24T00:52:55;0.90;;;0.60;;
37937;SDS011;23763;48.130;11.602;2023-04-24T00:55:21;1.48;;;0.65;;
37937;SDS011;23763;48.130;11.602;2023-04-24T00:57:46;0.70;;;0.70;;
37937;SDS011;23763;48.130;11.602;2023-04-24T01:00:13;0.70;;;0.70;;
37937;SDS011;23763;48.130;11.602;2023-04-24T01:02:40;0.68;;;0.68;;
37937;SDS011;23763;48.130;11.602;2023-04-24T01:05:10;2.08;;;0.95;;
37937;SDS011;23763;48.130;11.602;2023-04-24T01:07:38;1.25;;;0.80;;
37937;SDS011;23763;48.130;11.602;2023-04-24T01:10:04;0.80;;;0.80;;
37937;SDS011;23763;48.130;11.602;2023-04-24T01:12:30;0.70;;;0.70;;
37937;SDS011;23763;48.130;11.602;2023-04-24T01:14:57;0.60;;;0.60;;
37937;SDS011;23763;48.130;11.602;2023-04-24T01:17:23;0.60;;;0.60;;
37937;SDS011;23763;48.130;11.602;2023-04-24T01:19:48;0.68;;;0.68;;
37937;SDS011;23763;48.130;11.602;2023-04-24T01:22:14;0.50;;;0.50;;
37937;SDS011;23763;48.130;11.602;2023-04-24T01:24:41;0.85;;;0.43;;
37937;SDS011;23763;48.130;11.602;2023-04-24T01:27:08;1.70;;;0.50;;
37937;SDS011;23763;48.130;11.602;2023-04-24T01:29:34;0.50;;;0.50;;
37937;SDS011;23763;48.130;11.602;2023-04-24T01:32:00;0.50;;;0.50;;
37937;SDS011;23763;48.130;11.602;2023-04-24T01:34:26;2.75;;;0.75;;
37937;SDS011;23763;48.130;11.602;2023-04-24T01:36:52;0.50;;;0.50;;
37937;SDS011;23763;48.130;11.602;2023-04-24T01:39:18;0.50;;;0.50;;
37937;SDS011;23763;48.130;11.602;2023-04-24T01:41:45;0.45;;;0.45;;
37937;SDS011;23763;48.130;11.602;2023-04-24T01:44:11;0.77;;;0.40;;
37937;SDS011;23763;48.130;11.602;2023-04-24T01:46:37;0.55;;;0.40;;
37937;SDS011;23763;48.130;11.602;2023-04-24T01:49:03;0.40;;;0.40;;
37937;SDS011;23763;48.130;11.602;2023-04-24T01:51:29;0.50;;;0.50;;
37937;SDS011;23763;48.130;11.602;2023-04-24T01:53:55;0.75;;;0.40;;
37937;SDS011;23763;48.130;11.602;2023-04-24T01:56:21;0.55;;;0.40;;
37937;SDS011;23763;48.130;11.602;2023-04-24T01:58:48;1.77;;;0.52;;
37937;SDS011;23763;48.130;11.602;2023-04-24T02:01:19;0.50;;;0.50;;
37937;SDS011;23763;48.130;11.602;2023-04-24T02:03:45;0.45;;;0.40;;
37937;SDS011;23763;48.130;11.602;2023-04-24T02:06:10;0.90;;;0.50;;
37937;SDS011;23763;48.130;11.602;2023-04-24T02:08:36;0.63;;;0.47;;
37937;SDS011;23763;48.130;11.602;2023-04-24T02:11:02;0.85;;;0.50;;
37937;SDS011;23763;48.130;11.602;2023-04-24T02:13:27;1.25;;;0.93;;
37937;SDS011;23763;48.130;11.602;2023-04-24T02:15:53;0.80;;;0.50;;
37937;SDS011;23763;48.130;11.602;2023-04-24T02:18:19;0.40;;;0.40;;
37937;SDS011;23763;48.130;11.602;2023-04-24T02:20:45;0.50;;;0.50;;
37937;SDS011;23763;48.130;11.602;2023-04-24T02:23:11;0.60;;;0.50;;
37937;SDS011;23763;48.130;11.602;2023-04-24T02:25:38;0.50;;;0.50;;
37937;SDS011;23763;48.130;11.602;2023-04-24T02:28:03;0.60;;;0.60;;
37937;SDS011;23763;48.130;11.602;2023-04-24T02:30:29;0.55;;;0.55;;
37937;SDS011;23763;48.130;11.602;2023-04-24T02:32:55;0.52;;;0.52;;
37937;SDS011;23763;48.130;11.602;2023-04-24T02:35:21;0.50;;;0.50;;
37937;SDS011;23763;48.130;11.602;2023-04-24T02:37:46;0.65;;;0.60;;
37937;SDS011;23763;48.130;11.602;2023-04-24T02:40:12;0.40;;;0.40;;
37937;SDS011;23763;48.130;11.602;2023-04-24T02:42:38;0.98;;;0.40;;
37937;SDS011;23763;48.130;11.602;2023-04-24T02:45:03;0.50;;;0.50;;
37937;SDS011;23763;48.130;11.602;2023-04-24T02:47:30;0.47;;;0.40;;
37937;SDS011;23763;48.130;11.602;2023-04-24T02:49:55;0.50;;;0.50;;
37937;SDS011;23763;48.130;11.602;2023-04-24T02:52:21;0.57;;;0.50;;
37937;SDS011;23763;48.130;11.602;2023-04-24T02:54:47;0.50;;;0.50;;
37937;SDS011;23763;48.130;11.602;2023-04-24T02:57:12;0.60;;;0.52;;
37937;SDS011;23763;48.130;11.602;2023-04-24T02:59:38;0.60;;;0.50;;
37937;SDS011;23763;48.130;11.602;2023-04-24T03:02:03;0.70;;;0.40;;
37937;SDS011;23763;48.130;11.602;2023-04-24T03:04:29;1.35;;;0.50;;
37937;SDS011;23763;48.130;11.602;2023-04-24T03:06:55;0.55;;;0.52;;
37937;SDS011;23763;48.130;11.602;2023-04-24T03:09:20;0.32;;;0.32;;
37937;SDS011;23763;48.130;11.602;2023-04-24T03:11:46;0.50;;;0.50;;
37937;SDS011;23763;48.130;11.602;2023-04-24T03:14:13;0.40;;;0.40;;
37937;SDS011;23763;48.130;11.602;2023-04-24T03:16:39;0.30;;;0.30;;
37937;SDS011;23763;48.130;11.602;2023-04-24T03:19:05;0.50;;;0.50;;
37937;SDS011;23763;48.130;11.602;2023-04-24T03:21:30;1.08;;;0.52;;
37937;SDS011;23763;48.130;11.602;2023-04-24T03:23:56;0.50;;;0.50;;
37937;SDS011;23763;48.130;11.602;2023-04-24T03:26:22;0.40;;;0.40;;
37937;SDS011;23763;48.130;11.602;2023-04-24T03:28:47;2.58;;;0.60;;
37937;SDS011;23763;48.130;11.602;2023-04-24T03:31:13;0.40;;;0.40;;
37937;SDS011;23763;48.130;11.602;2023-04-24T03:33:40;0.57;;;0.57;;
37937;SDS011;23763;48.130;11.602;2023-04-24T03:36:06;0.80;;;0.60;;
37937;SDS011;23763;48.130;11.602;2023-04-24T03:38:31;0.70;;;0.70;;
37937;SDS011;23763;48.130;11.602;2023-04-24T03:40:57;0.35;;;0.35;;
37937;SDS011;23763;48.130;11.602;2023-04-24T03:43:23;0.85;;;0.50;;
37937;SDS011;23763;48.130;11.602;2023-04-24T03:45:48;0.70;;;0.50;;
37937;SDS011;23763;48.130;11.602;2023-04-24T03:48:14;0.57;;;0.57;;
37937;SDS011;23763;48.130;11.602;2023-04-24T03:50:40;1.05;;;0.60;;
37937;SDS011;23763;48.130;11.602;2023-04-24T03:53:05;1.58;;;0.60;;
37937;SDS011;23763;48.130;11.602;2023-04-24T03:55:31;0.50;;;0.50;;
37937;SDS011;23763;48.130;11.602;2023-04-24T03:57:57;0.40;;;0.40;;
37937;SDS011;23763;48.130;11.602;2023-04-24T04:00:23;0.70;;;0.70;;
37937;SDS011;23763;48.130;11.602;2023-04-24T04:02:48;0.52;;;0.50;;
37937;SDS011;23763;48.130;11.602;2023-04-24T04:05:14;1.65;;;0.80;;
37937;SDS011;23763;48.130;11.602;2023-04-24T04:07:40;0.93;;;0.55;;
37937;SDS011;23763;48.130;11.602;2023-04-24T04:10:05;0.70;;;0.70;;
37937;SDS011;23763;48.130;11.602;2023-04-24T04:15:13;0.93;;;0.68;;
37937;SDS011;23763;48.130;11.602;2023-04-24T04:17:39;1.58;;;0.93;;
37937;SDS011;23763;48.130;11.602;2023-04-24T04:20:21;0.75;;;0.60;;
37937;SDS011;23763;48.130;11.602;2023-04-24T04:22:47;0.90;;;0.60;;
37937;SDS011;23763;48.130;11.602;2023-04-24T04:25:13;2.58;;;0.88;;
37937;SDS011;23763;48.130;11.602;2023-04-24T04:27:44;1.08;;;1.08;;
37937;SDS011;23763;48.130;11.602;2023-04-24T04:30:10;1.40;;;0.65;;
37937;SDS011;23763;48.130;11.602;2023-04-24T04:32:56;1.73;;;0.90;;
37937;SDS011;23763;48.130;11.602;2023-04-24T04:35:35;0.60;;;0.60;;
37937;SDS011;23763;48.130;11.602;2023-04-24T04:38:01;0.60;;;0.60;;
37937;SDS011;23763;48.130;11.602;2023-04-24T04:40:27;1.38;;;0.60;;
37937;SDS011;23763;48.130;11.602;2023-04-24T04:42:53;0.98;;;0.40;;
37937;SDS011;23763;48.130;11.602;2023-04-24T04:45:19;0.60;;;0.47;;
37937;SDS011;23763;48.130;11.602;2023-04-24T04:47:52;0.55;;;0.55;;
37937;SDS011;23763;48.130;11.602;2023-04-24T04:50:20;0.65;;;0.50;;
37937;SDS011;23763;48.130;11.602;2023-04-24T04:52:45;1.55;;;0.73;;
37937;SDS011;23763;48.130;11.602;2023-04-24T04:55:11;0.85;;;0.47;;
37937;SDS011;23763;48.130;11.602;2023-04-24T04:57:38;0.50;;;0.50;;
37937;SDS011;23763;48.130;11.602;2023-04-24T05:00:04;0.60;;;0.60;;
37937;SDS011;23763;48.130;11.602;2023-04-24T05:02:31;0.50;;;0.50;;
37937;SDS011;23763;48.130;11.602;2023-04-24T05:04:57;0.75;;;0.70;;
37937;SDS011;23763;48.130;11.602;2023-04-24T05:07:23;2.83;;;0.60;;
37937;SDS011;23763;48.130;11.602;2023-04-24T05:09:48;0.75;;;0.60;;
37937;SDS011;23763;48.130;11.602;2023-04-24T05:12:14;0.70;;;0.70;;
37937;SDS011;23763;48.130;11.602;2023-04-24T05:14:40;0.57;;;0.57;;
37937;SDS011;23763;48.130;11.602;2023-04-24T05:17:05;0.50;;;0.50;;
37937;SDS011;23763;48.130;11.602;2023-04-24T05:19:31;2.88;;;0.90;;
37937;SDS011;23763;48.130;11.602;2023-04-24T05:22:00;0.57;;;0.57;;
37937;SDS011;23763;48.130;11.602;2023-04-24T05:24:28;1.85;;;0.60;;
37937;SDS011;23763;48.130;11.602;2023-04-24T05:26:54;0.80;;;0.60;;
37937;SDS011;23763;48.130;11.602;2023-04-24T05:29:20;0.60;;;0.50;;
37937;SDS011;23763;48.130;11.602;2023-04-24T05:31:46;0.40;;;0.40;;
37937;SDS011;23763;48.130;11.602;2023-04-24T05:34:12;0.52;;;0.52;;
37937;SDS011;23763;48.130;11.602;2023-04-24T05:36:37;0.60;;;0.60;;
37937;SDS011;23763;48.130;11.602;2023-04-24T05:39:03;1.05;;;0.50;;
37937;SDS011;23763;48.130;11.602;2023-04-24T05:41:30;0.57;;;0.50;;
37937;SDS011;23763;48.130;11.602;2023-04-24T05:43:55;0.57;;;0.57;;
37937;SDS011;23763;48.130;11.602;2023-04-24T05:46:21;0.52;;;0.50;;
37937;SDS011;23763;48.130;11.602;2023-04-24T05:48:46;0.50;;;0.50;;
37937;SDS011;23763;48.130;11.602;2023-04-24T05:51:12;0.50;;;0.50;;
37937;SDS011;23763;48.130;11.602;2023-04-24T05:53:38;0.60;;;0.60;;
37937;SDS011;23763;48.130;11.602;2023-04-24T05:56:03;0.60;;;0.60;;
37937;SDS011;23763;48.130;11.602;2023-04-24T05:58:29;0.75;;;0.63;;
37937;SDS011;23763;48.130;11.602;2023-04-24T06:00:55;0.55;;;0.55;;
37937;SDS011;23763;48.130;11.602;2023-04-24T06:03:22;0.70;;;0.55;;
37937;SDS011;23763;48.130;11.602;2023-04-24T06:05:49;0.47;;;0.47;;
37937;SDS011;23763;48.130;11.602;2023-04-24T06:08:16;0.75;;;0.75;;
37937;SDS011;23763;48.130;11.602;2023-04-24T06:10:42;0.55;;;0.55;;
37937;SDS011;23763;48.130;11.602;2023-04-24T06:13:11;1.48;;;0.77;;
37937;SDS011;23763;48.130;11.602;2023-04-24T06:16:15;1.05;;;0.60;;
37937;SDS011;23763;48.130;11.602;2023-04-24T06:18:44;0.98;;;0.60;;
37937;SDS011;23763;48.130;11.602;2023-04-24T06:21:12;0.50;;;0.50;;
37937;SDS011;23763;48.130;11.602;2023-04-24T06:23:38;0.70;;;0.70;;
37937;SDS011;23763;48.130;11.602;2023-04-24T06:26:06;0.88;;;0.50;;
37937;SDS011;23763;48.130;11.602;2023-04-24T06:28:33;1.70;;;0.63;;
37937;SDS011;23763;48.130;11.602;2023-04-24T06:30:59;1.83;;;0.70;;
37937;SDS011;23763;48.130;11.602;2023-04-24T06:33:25;0.93;;;0.80;;
37937;SDS011;23763;48.130;11.602;2023-04-24T06:35:51;0.63;;;0.60;;
37937;SDS011;23763;48.130;11.602;2023-04-24T06:38:17;0.70;;;0.63;;
37937;SDS011;23763;48.130;11.602;2023-04-24T06:40:43;0.50;;;0.50;;
37937;SDS011;23763;48.130;11.602;2023-04-24T06:43:10;0.93;;;0.70;;
37937;SDS011;23763;48.130;11.602;2023-04-24T06:45:36;1.52;;;0.80;;
37937;SDS011;23763;48.130;11.602;2023-04-24T06:48:01;1.05;;;0.60;;
37937;SDS011;23763;48.130;11.602;2023-04-24T06:50:27;2.22;;;0.70;;
37937;SDS011;23763;48.130;11.602;2023-04-24T06:52:53;1.20;;;0.65;;
37937;SDS011;23763;48.130;11.602;2023-04-24T06:55:18;0.60;;;0.60;;
37937;SDS011;23763;48.130;11.602;2023-04-24T06:57:44;3.10;;;0.60;;
37937;SDS011;23763;48.130;11.602;2023-04-24T07:00:10;0.43;;;0.43;;
37937;SDS011;23763;48.130;11.602;2023-04-24T07:02:45;2.22;;;0.60;;
37937;SDS011;23763;48.130;11.602;2023-04-24T07:05:10;0.70;;;0.70;;
37937;SDS011;23763;48.130;11.602;2023-04-24T07:07:37;0.50;;;0.50;;
37937;SDS011;23763;48.130;11.602;2023-04-24T07:10:05;0.85;;;0.60;;
37937;SDS011;23763;48.130;11.602;2023-04-24T07:12:31;1.95;;;0.70;;
37937;SDS011;23763;48.130;11.602;2023-04-24T07:14:57;1.23;;;0.68;;
37937;SDS011;23763;48.130;11.602;2023-04-24T07:17:23;0.60;;;0.60;;
37937;SDS011;23763;48.130;11.602;2023-04-24T07:19:51;0.60;;;0.60;;
37937;SDS011;23763;48.130;11.602;2023-04-24T07:22:17;1.25;;;0.60;;
37937;SDS011;23763;48.130;11.602;2023-04-24T07:24:46;2.38;;;0.70;;
37937;SDS011;23763;48.130;11.602;2023-04-24T07:27:13;0.95;;;0.65;;
37937;SDS011;23763;48.130;11.602;2023-04-24T07:29:40;2.00;;;0.65;;
37937;SDS011;23763;48.130;11.602;2023-04-24T07:32:06;0.50;;;0.50;;
37937;SDS011;23763;48.130;11.602;2023-04-24T07:34:40;0.82;;;0.63;;
37937;SDS011;23763;48.130;11.602;2023-04-24T07:37:06;1.17;;;0.88;;
37937;SDS011;23763;48.130;11.602;2023-04-24T07:39:32;0.93;;;0.60;;
37937;SDS011;23763;48.130;11.602;2023-04-24T07:41:58;0.90;;;0.90;;
37937;SDS011;23763;48.130;11.602;2023-04-24T07:44:26;2.63;;;0.80;;
37937;SDS011;23763;48.130;11.602;2023-04-24T07:46:52;0.90;;;0.80;;
37937;SDS011;23763;48.130;11.602;2023-04-24T07:49:17;0.63;;;0.60;;
37937;SDS011;23763;48.130;11.602;2023-04-24T07:51:44;0.60;;;0.60;;
37937;SDS011;23763;48.130;11.602;2023-04-24T07:54:10;1.23;;;0.90;;
37937;SDS011;23763;48.130;11.602;2023-04-24T07:56:36;1.42;;;0.93;;
37937;SDS011;23763;48.130;11.602;2023-04-24T07:59:06;0.77;;;0.70;;
37937;SDS011;23763;48.130;11.602;2023-04-24T08:01:32;1.13;;;0.70;;
37937;SDS011;23763;48.130;11.602;2023-04-24T08:03:58;1.60;;;0.60;;
37937;SDS011;23763;48.130;11.602;2023-04-24T08:06:24;1.80;;;1.10;;
37937;SDS011;23763;48.130;11.602;2023-04-24T08:08:52;2.03;;;1.17;;
37937;SDS011;23763;48.130;11.602;2023-04-24T08:11:18;0.88;;;0.82;;
37937;SDS011;23763;48.130;11.602;2023-04-24T08:13:45;0.88;;;0.80;;
37937;SDS011;23763;48.130;11.602;2023-04-24T08:16:10;1.10;;;1.00;;
37937;SDS011;23763;48.130;11.602;2023-04-24T08:18:36;1.35;;;0.73;;
37937;SDS011;23763;48.130;11.602;2023-04-24T08:21:08;0.77;;;0.77;;
37937;SDS011;23763;48.130;11.602;2023-04-24T08:23:36;2.03;;;1.02;;
37937;SDS011;23763;48.130;11.602;2023-04-24T08:26:01;3.03;;;1.23;;
37937;SDS011;23763;48.130;11.602;2023-04-24T08:28:28;3.38;;;1.25;;
37937;SDS011;23763;48.130;11.602;2023-04-24T08:30:56;0.85;;;0.70;;
37937;SDS011;23763;48.130;11.602;2023-04-24T08:33:22;1.90;;;0.82;;
37937;SDS011;23763;48.130;11.602;2023-04-24T08:35:48;2.50;;;1.52;;
37937;SDS011;23763;48.130;11.602;2023-04-24T08:38:17;3.45;;;1.17;;
37937;SDS011;23763;48.130;11.602;2023-04-24T08:40:50;1.02;;;0.60;;
37937;SDS011;23763;48.130;11.602;2023-04-24T08:43:21;1.48;;;0.77;;
37937;SDS011;23763;48.130;11.602;2023-04-24T08:45:47;1.40;;;0.80;;
37937;SDS011;23763;48.130;11.602;2023-04-24T08:48:13;1.38;;;0.70;;
37937;SDS011;23763;48.130;11.602;2023-04-24T08:50:40;0.88;;;0.88;;
37937;SDS011;23763;48.130;11.602;2023-04-24T08:53:08;1.75;;;1.17;;
37937;SDS011;23763;48.130;11.602;2023-04-24T08:55:34;1.30;;;0.95;;
37937;SDS011;23763;48.130;11.602;2023-04-24T08:58:00;2.20;;;1.40;;
37937;SDS011;23763;48.130;11.602;2023-04-24T09:00:27;5.32;;;1.25;;
37937;SDS011;23763;48.130;11.602;2023-04-24T09:02:53;1.83;;;1.02;;
37937;SDS011;23763;48.130;11.602;2023-04-24T09:05:20;2.38;;;1.17;;
37937;SDS011;23763;48.130;11.602;2023-04-24T09:07:53;2.25;;;1.00;;
37937;SDS011;23763;48.130;11.602;2023-04-24T09:10:21;1.00;;;0.90;;
37937;SDS011;23763;48.130;11.602;2023-04-24T09:12:50;1.77;;;0.90;;
37937;SDS011;23763;48.130;11.602;2023-04-24T09:15:16;3.85;;;1.20;;
37937;SDS011;23763;48.130;11.602;2023-04-24T09:17:46;1.23;;;1.00;;
37937;SDS011;23763;48.130;11.602;2023-04-24T09:20:12;1.30;;;1.05;;
37937;SDS011;23763;48.130;11.602;2023-04-24T09:22:38;1.48;;;0.90;;
37937;SDS011;23763;48.130;11.602;2023-04-24T09:25:05;5.40;;;2.40;;
37937;SDS011;23763;48.130;11.602;2023-04-24T09:27:33;1.73;;;1.27;;
37937;SDS011;23763;48.130;11.602;2023-04-24T09:29:59;2.58;;;1.00;;
37937;SDS011;23763;48.130;11.602;2023-04-24T09:32:25;1.15;;;1.05;;
37937;SDS011;23763;48.130;11.602;2023-04-24T09:35:08;1.17;;;1.08;;
37937;SDS011;23763;48.130;11.602;2023-04-24T09:37:35;1.95;;;1.02;;
37937;SDS011;23763;48.130;11.602;2023-04-24T09:42:37;1.52;;;1.10;;
37937;SDS011;23763;48.130;11.602;2023-04-24T09:45:04;1.38;;;1.27;;
37937;SDS011;23763;48.130;11.602;2023-04-24T09:47:42;2.40;;;1.40;;
37937;SDS011;23763;48.130;11.602;2023-04-24T09:50:11;2.63;;;1.40;;
37937;SDS011;23763;48.130;11.602;2023-04-24T09:52:42;3.03;;;1.40;;
37937;SDS011;23763;48.130;11.602;2023-04-24T09:55:19;1.35;;;1.25;;
37937;SDS011;23763;48.130;11.602;2023-04-24T09:57:52;1.30;;;1.20;;
37937;SDS011;23763;48.130;11.602;2023-04-24T10:00:24;2.90;;;1.50;;
37937;SDS011;23763;48.130;11.602;2023-04-24T10:03:01;1.67;;;1.30;;
37937;SDS011;23763;48.130;11.602;2023-04-24T10:07:57;1.77;;;1.23;;
37937;SDS011;23763;48.130;11.602;2023-04-24T10:10:34;1.35;;;1.25;;
37937;SDS011;23763;48.130;11.602;2023-04-24T10:13:03;1.33;;;1.10;;
37937;SDS011;23763;48.130;11.602;2023-04-24T10:15:29;1.33;;;1.20;;
37937;SDS011;23763;48.130;11.602;2023-04-24T10:17:57;1.45;;;1.20;;
37937;SDS011;23763;48.130;11.602;2023-04-24T10:20:27;1.80;;;1.40;;
37937;SDS011;23763;48.130;11.602;2023-04-24T10:22:55;1.80;;;1.30;;
37937;SDS011;23763;48.130;11.602;2023-04-24T10:25:26;1.40;;;1.30;;
37937;SDS011;23763;48.130;11.602;2023-04-24T10:27:53;2.92;;;1.23;;
37937;SDS011;23763;48.130;11.602;2023-04-24T10:30:24;1.17;;;1.10;;
37937;SDS011;23763;48.130;11.602;2023-04-24T10:32:51;2.15;;;1.30;;
37937;SDS011;23763;48.130;11.602;2023-04-24T10:35:17;2.10;;;1.45;;
37937;SDS011;23763;48.130;11.602;2023-04-24T10:37:52;1.58;;;1.48;;
37937;SDS011;23763;48.130;11.602;2023-04-24T10:40:40;2.25;;;1.33;;
37937;SDS011;23763;48.130;11.602;2023-04-24T10:43:08;2.33;;;1.40;;
37937;SDS011;23763;48.130;11.602;2023-04-24T10:45:36;2.03;;;1.35;;
37937;SDS011;23763;48.130;11.602;2023-04-24T10:48:04;1.20;;;1.10;;
37937;SDS011;23763;48.130;11.602;2023-04-24T10:50:47;3.03;;;1.30;;
37937;SDS011;23763;48.130;11.602;2023-04-24T10:53:17;3.20;;;1.42;;
37937;SDS011;23763;48.130;11.602;2023-04-24T10:58:11;4.00;;;1.40;;
37937;SDS011;23763;48.130;11.602;2023-04-24T11:00:37;2.67;;;1.00;;
37937;SDS011;23763;48.130;11.602;2023-04-24T11:03:05;3.15;;;0.80;;
37937;SDS011;23763;48.130;11.602;2023-04-24T11:15:18;4.20;;;1.25;;
37937;SDS011;23763;48.130;11.602;2023-04-24T11:17:45;6.35;;;3.05;;
37937;SDS011;23763;48.130;11.602;2023-04-24T11:20:11;1.75;;;0.95;;
37937;SDS011;23763;48.130;11.602;2023-04-24T11:22:41;0.88;;;0.88;;
37937;SDS011;23763;48.130;11.602;2023-04-24T11:25:07;1.33;;;1.00;;
37937;SDS011;23763;48.130;11.602;2023-04-24T11:27:41;1.05;;;0.93;;
37937;SDS011;23763;48.130;11.602;2023-04-24T11:30:09;0.80;;;0.80;;
37937;SDS011;23763;48.130;11.602;2023-04-24T11:32:36;1.92;;;1.02;;
37937;SDS011;23763;48.130;11.602;2023-04-24T11:37:41;1.30;;;1.20;;
37937;SDS011;23763;48.130;11.602;2023-04-24T11:40:12;1.10;;;0.93;;
37937;SDS011;23763;48.130;11.602;2023-04-24T11:42:42;2.28;;;1.30;;
37937;SDS011;23763;48.130;11.602;2023-04-24T11:45:13;2.78;;;1.42;;
37937;SDS011;23763;48.130;11.602;2023-04-24T11:47:39;1.30;;;1.20;;
37937;SDS011;23763;48.130;11.602;2023-04-24T11:50:06;1.45;;;1.30;;
37937;SDS011;23763;48.130;11.602;2023-04-24T11:52:33;1.30;;;1.20;;
37937;SDS011;23763;48.130;11.602;2023-04-24T11:55:03;1.63;;;1.40;;
37937;SDS011;23763;48.130;11.602;2023-04-24T11:57:29;1.33;;;1.20;;
37937;SDS011;23763;48.130;11.602;2023-04-24T12:00:02;1.58;;;1.20;;
37937;SDS011;23763;48.130;11.602;2023-04-24T12:02:30;2.15;;;1.10;;
37937;SDS011;23763;48.130;11.602;2023-04-24T12:04:55;2.60;;;1.40;;
37937;SDS011;23763;48.130;11.602;2023-04-24T12:07:22;2.78;;;1.40;;
37937;SDS011;23763;48.130;11.602;2023-04-24T12:09:56;2.63;;;1.70;;
37937;SDS011;23763;48.130;11.602;2023-04-24T12:12:24;1.50;;;1.30;;
37937;SDS011;23763;48.130;11.602;2023-04-24T12:14:57;2.17;;;1.23;;
37937;SDS011;23763;48.130;11.602;2023-04-24T12:17:25;1.20;;;1.10;;
37937;SDS011;23763;48.130;11.602;2023-04-24T12:19:50;3.33;;;1.20;;
37937;SDS011;23763;48.130;11.602;2023-04-24T12:22:16;1.48;;;1.38;;
37937;SDS011;23763;48.130;11.602;2023-04-24T12:27:33;2.00;;;1.20;;
37937;SDS011;23763;48.130;11.602;2023-04-24T12:29:59;1.48;;;1.05;;
37937;SDS011;23763;48.130;11.602;2023-04-24T12:32:28;1.35;;;1.23;;
37937;SDS011;23763;48.130;11.602;2023-04-24T12:34:54;2.05;;;1.30;;
37937;SDS011;23763;48.130;11.602;2023-04-24T12:37:20;4.15;;;3.13;;
37937;SDS011;23763;48.130;11.602;2023-04-24T12:39:58;2.33;;;1.35;;
37937;SDS011;23763;48.130;11.602;2023-04-24T12:42:25;1.10;;;1.02;;
37937;SDS011;23763;48.130;11.602;2023-04-24T12:44:55;1.17;;;1.08;;
37937;SDS011;23763;48.130;11.602;2023-04-24T12:47:22;2.65;;;1.33;;
37937;SDS011;23763;48.130;11.602;2023-04-24T12:49:48;1.30;;;1.20;;
37937;SDS011;23763;48.130;11.602;2023-04-24T12:52:15;1.80;;;1.30;;
37937;SDS011;23763;48.130;11.602;2023-04-24T12:54:42;1.25;;;1.15;;
37937;SDS011;23763;48.130;11.602;2023-04-24T12:57:08;2.30;;;1.20;;
37937;SDS011;23763;48.130;11.602;2023-04-24T12:59:33;5.30;;;1.20;;
37937;SDS011;23763;48.130;11.602;2023-04-24T13:02:08;2.50;;;1.25;;
37937;SDS011;23763;48.130;11.602;2023-04-24T13:04:35;2.40;;;1.27;;
37937;SDS011;23763;48.130;11.602;2023-04-24T13:07:00;1.30;;;1.20;;
37937;SDS011;23763;48.130;11.602;2023-04-24T13:09:26;2.97;;;1.30;;
37937;SDS011;23763;48.130;11.602;2023-04-24T13:11:52;1.67;;;1.30;;
37937;SDS011;23763;48.130;11.602;2023-04-24T13:14:17;1.42;;;1.33;;
37937;SDS011;23763;48.130;11.602;2023-04-24T13:16:43;1.85;;;1.17;;
37937;SDS011;23763;48.130;11.602;2023-04-24T13:19:09;1.50;;;1.23;;
37937;SDS011;23763;48.130;11.602;2023-04-24T13:21:35;2.97;;;1.20;;
37937;SDS011;23763;48.130;11.602;2023-04-24T13:24:00;1.92;;;1.40;;
37937;SDS011;23763;48.130;11.602;2023-04-24T13:26:26;2.10;;;1.50;;
37937;SDS011;23763;48.130;11.602;2023-04-24T13:28:52;2.13;;;1.50;;
37937;SDS011;23763;48.130;11.602;2023-04-24T13:31:18;2.33;;;1.48;;
37937;SDS011;23763;48.130;11.602;2023-04-24T13:33:43;2.58;;;1.58;;
37937;SDS011;23763;48.130;11.602;2023-04-24T13:36:09;2.70;;;1.40;;
37937;SDS011;23763;48.130;11.602;2023-04-24T13:38:35;1.48;;;1.38;;
37937;SDS011;23763;48.130;11.602;2023-04-24T13:41:00;2.22;;;1.27;;
37937;SDS011;23763;48.130;11.602;2023-04-24T13:43:26;3.92;;;3.28;;
37937;SDS011;23763;48.130;11.602;2023-04-24T13:45:52;2.63;;;1.40;;
37937;SDS011;23763;48.130;11.602;2023-04-24T13:48:17;2.90;;;1.30;;
37937;SDS011;23763;48.130;11.602;2023-04-24T13:50:43;1.38;;;1.27;;
37937;SDS011;23763;48.130;11.602;2023-04-24T13:53:09;1.88;;;1.63;;
37937;SDS011;23763;48.130;11.602;2023-04-24T13:55:35;1.88;;;1.70;;
37937;SDS011;23763;48.130;11.602;2023-04-24T13:58:01;1.88;;;1.48;;
37937;SDS011;23763;48.130;11.602;2023-04-24T14:00:27;1.50;;;1.40;;
37937;SDS011;23763;48.130;11.602;2023-04-24T14:02:53;2.33;;;1.38;;
37937;SDS011;23763;48.130;11.602;2023-04-24T14:05:19;1.80;;;1.40;;
37937;SDS011;23763;48.130;11.602;2023-04-24T14:07:46;1.80;;;1.50;;
37937;SDS011;23763;48.130;11.602;2023-04-24T14:10:12;3.88;;;2.85;;
37937;SDS011;23763;48.130;11.602;2023-04-24T14:12:37;1.70;;;1.60;;
37937;SDS011;23763;48.130;11.602;2023-04-24T14:15:03;3.70;;;1.58;;
37937;SDS011;23763;48.130;11.602;2023-04-24T14:17:30;1.45;;;1.35;;
37937;SDS011;23763;48.130;11.602;2023-04-24T14:19:56;2.25;;;1.45;;
37937;SDS011;23763;48.130;11.602;2023-04-24T14:22:21;2.60;;;1.80;;
37937;SDS011;23763;48.130;11.602;2023-04-24T14:24:47;2.13;;;1.55;;
37937;SDS011;23763;48.130;11.602;2023-04-24T14:27:13;1.75;;;1.50;;
37937;SDS011;23763;48.130;11.602;2023-04-24T14:29:39;2.45;;;1.60;;
37937;SDS011;23763;48.130;11.602;2023-04-24T14:32:04;3.72;;;2.00;;
37937;SDS011;23763;48.130;11.602;2023-04-24T14:34:30;2.83;;;2.10;;
37937;SDS011;23763;48.130;11.602;2023-04-24T14:36:56;3.58;;;1.90;;
37937;SDS011;23763;48.130;11.602;2023-04-24T14:39:21;2.45;;;2.00;;
37937;SDS011;23763;48.130;11.602;2023-04-24T14:41:47;3.40;;;1.75;;
37937;SDS011;23763;48.130;11.602;2023-04-24T14:44:13;3.47;;;1.77;;
37937;SDS011;23763;48.130;11.602;2023-04-24T14:46:38;3.75;;;2.03;;
37937;SDS011;23763;48.130;11.602;2023-04-24T14:49:04;5.03;;;1.95;;
37937;SDS011;23763;48.130;11.602;2023-04-24T14:51:30;2.53;;;1.67;;
37937;SDS011;23763;48.130;11.602;2023-04-24T14:53:56;1.73;;;1.63;;
37937;SDS011;23763;48.130;11.602;2023-04-24T14:56:22;2.00;;;1.58;;
37937;SDS011;23763;48.130;11.602;2023-04-24T14:58:48;2.83;;;1.77;;